sensor_id;sensor_type;location;lat;lon;timestamp;pressure;altitude;pressure_sealevel;temperature;humidity
23427;BME280;41148;45.420;10.952;2022-12-07T00:01:31;100647.25;;;3.94;100.00
23427;BME280;41148;45.420;10.952;2022-12-07T00:04:00;100632.38;;;3.80;100.00
23427;BME280;41148;45.420;10.952;2022-12-07T00:06:33;100633.22;;;3.97;100.00
23427;BME280;41148;45.420;10.952;2022-12-07T00:09:03;100631.47;;;3.81;100.00
23427;BME280;41148;45.420;10.952;2022-12-07T00:11:30;100643.72;;;3.95;100.00
23427;BME280;41148;45.420;10.952;2022-12-07T00:14:00;100627.03;;;4.04;100.00
23427;BME280;41148;45.420;10.952;2022-12-07T00:16:30;100647.22;;;4.17;100.00
23427;BME280;41148;45.420;10.952;2022-12-07T00:18:58;100616.53;;;3.98;100.00
23427;BME280;41148;45.420;10.952;2022-12-07T00:21:30;100634.09;;;3.96;100.00
23427;BME280;41148;45.420;10.952;2022-12-07T00:23:58;100608.66;;;3.78;100.00
23427;BME280;41148;45.420;10.952;2022-12-07T00:26:37;100632.34;;;3.86;100.00
23427;BME280;41148;45.420;10.952;2022-12-07T00:29:09;100620.03;;;3.85;100.00
23427;BME280;41148;45.420;10.952;2022-12-07T00:31:39;100608.63;;;3.83;100.00
23427;BME280;41148;45.420;10.952;2022-12-07T00:34:09;100622.69;;;3.72;100.00
23427;BME280;41148;45.420;10.952;2022-12-07T00:36:38;100633.25;;;3.86;100.00
23427;BME280;41148;45.420;10.952;2022-12-07T00:39:06;100627.06;;;3.92;100.00
23427;BME280;41148;45.420;10.952;2022-12-07T00:41:34;100632.34;;;3.86;100.00
23427;BME280;41148;45.420;10.952;2022-12-07T00:44:01;100622.69;;;3.91;100.00
23427;BME280;41148;45.420;10.952;2022-12-07T00:46:29;100616.53;;;3.96;100.00
23427;BME280;41148;45.420;10.952;2022-12-07T00:48:57;100627.94;;;3.92;100.00
23427;BME280;41148;45.420;10.952;2022-12-07T00:51:25;100627.91;;;4.03;100.00
23427;BME280;41148;45.420;10.952;2022-12-07T00:53:52;100609.47;;;3.94;100.00
23427;BME280;41148;45.420;10.952;2022-12-07T00:56:22;100612.97;;;4.10;100.00
23427;BME280;41148;45.420;10.952;2022-12-07T00:58:52;100626.16;;;4.08;100.00
23427;BME280;41148;45.420;10.952;2022-12-07T01:01:20;100606.84;;;4.06;100.00
23427;BME280;41148;45.420;10.952;2022-12-07T01:03:48;100615.59;;;4.11;100.00
23427;BME280;41148;45.420;10.952;2022-12-07T01:06:17;100610.31;;;4.14;100.00
23427;BME280;41148;45.420;10.952;2022-12-07T01:08:45;100600.63;;;4.13;100.00
23427;BME280;41148;45.420;10.952;2022-12-07T01:11:15;100620.06;;;3.82;100.00
23427;BME280;41148;45.420;10.952;2022-12-07T01:13:43;100623.56;;;3.84;100.00
23427;BME280;41148;45.420;10.952;2022-12-07T01:16:16;100629.69;;;3.84;100.00
23427;BME280;41148;45.420;10.952;2022-12-07T01:18:46;100627.97;;;3.79;100.00
23427;BME280;41148;45.420;10.952;2022-12-07T01:21:22;100634.97;;;3.75;100.00
23427;BME280;41148;45.420;10.952;2022-12-07T01:23:50;100624.47;;;3.78;100.00
23427;BME280;41148;45.420;10.952;2022-12-07T01:26:21;100618.31;;;3.65;100.00
23427;BME280;41148;45.420;10.952;2022-12-07T01:28:49;100628.88;;;3.58;100.00
23427;BME280;41148;45.420;10.952;2022-12-07T01:31:19;100618.31;;;3.61;100.00
23427;BME280;41148;45.420;10.952;2022-12-07T01:33:51;100610.44;;;3.49;100.00
23427;BME280;41148;45.420;10.952;2022-12-07T01:36:20;100617.44;;;3.53;100.00
23427;BME280;41148;45.420;10.952;2022-12-07T01:38:49;100619.19;;;3.61;100.00
23427;BME280;41148;45.420;10.952;2022-12-07T01:41:20;100625.34;;;3.59;100.00
23427;BME280;41148;45.420;10.952;2022-12-07T01:44:20;100624.47;;;3.60;100.00
23427;BME280;41148;45.420;10.952;2022-12-07T01:46:52;100609.53;;;3.71;100.00
23427;BME280;41148;45.420;10.952;2022-12-07T01:49:22;100620.94;;;3.78;100.00
23427;BME280;41148;45.420;10.952;2022-12-07T01:51:57;100599.03;;;3.57;100.00
23427;BME280;41148;45.420;10.952;2022-12-07T01:54:25;100603.41;;;3.54;100.00
23427;BME280;41148;45.420;10.952;2022-12-07T01:56:55;100614.81;;;3.60;100.00
23427;BME280;41148;45.420;10.952;2022-12-07T01:59:25;100611.28;;;3.66;100.00
23427;BME280;41148;45.420;10.952;2022-12-07T02:01:54;100606.03;;;3.69;100.00
23427;BME280;41148;45.420;10.952;2022-12-07T02:04:23;100606.00;;;3.75;100.00
23427;BME280;41148;45.420;10.952;2022-12-07T02:06:51;100617.44;;;3.65;100.00
23427;BME280;41148;45.420;10.952;2022-12-07T02:09:20;100623.59;;;3.71;100.00
23427;BME280;41148;45.420;10.952;2022-12-07T02:11:48;100609.50;;;3.74;100.00
23427;BME280;41148;45.420;10.952;2022-12-07T02:14:16;100599.03;;;3.59;100.00
23427;BME280;41148;45.420;10.952;2022-12-07T02:16:51;100613.03;;;3.65;100.00
23427;BME280;41148;45.420;10.952;2022-12-07T02:20:11;100595.50;;;3.60;100.00
23427;BME280;41148;45.420;10.952;2022-12-07T02:23:00;100591.09;;;3.54;100.00
23427;BME280;41148;45.420;10.952;2022-12-07T02:28:34;100598.13;;;3.43;100.00
23427;BME280;41148;45.420;10.952;2022-12-07T02:31:10;100591.97;;;3.36;100.00
23427;BME280;41148;45.420;10.952;2022-12-07T02:33:49;100578.81;;;3.26;100.00
23427;BME280;41148;45.420;10.952;2022-12-07T02:36:28;100575.31;;;3.33;100.00
23427;BME280;41148;45.420;10.952;2022-12-07T02:39:16;100581.47;;;3.38;100.00
23427;BME280;41148;45.420;10.952;2022-12-07T02:41:51;100591.97;;;3.45;100.00
23427;BME280;41148;45.420;10.952;2022-12-07T02:44:24;100589.34;;;3.44;100.00
23427;BME280;41148;45.420;10.952;2022-12-07T02:46:56;100571.78;;;3.58;100.00
23427;BME280;41148;45.420;10.952;2022-12-07T02:49:26;100588.50;;;3.57;100.00
23427;BME280;41148;45.420;10.952;2022-12-07T02:51:54;100587.59;;;3.51;100.00
23427;BME280;41148;45.420;10.952;2022-12-07T02:54:22;100584.03;;;3.74;100.00
23427;BME280;41148;45.420;10.952;2022-12-07T03:01:50;100587.56;;;3.78;100.00
23427;BME280;41148;45.420;10.952;2022-12-07T03:07:37;100580.53;;;3.72;100.00
23427;BME280;41148;45.420;10.952;2022-12-07T03:17:55;100583.16;;;3.86;100.00
23427;BME280;41148;45.420;10.952;2022-12-07T03:20:25;100584.91;;;3.96;100.00
23427;BME280;41148;45.420;10.952;2022-12-07T03:22:54;100585.75;;;3.94;100.00
23427;BME280;41148;45.420;10.952;2022-12-07T03:25:23;100578.75;;;3.88;100.00
23427;BME280;41148;45.420;10.952;2022-12-07T03:27:55;100572.66;;;3.77;100.00
23427;BME280;41148;45.420;10.952;2022-12-07T03:30:35;100569.09;;;3.75;100.00
23427;BME280;41148;45.420;10.952;2022-12-07T03:33:17;100560.38;;;3.58;100.00
23427;BME280;41148;45.420;10.952;2022-12-07T03:36:23;100568.25;;;3.65;100.00
23427;BME280;41148;45.420;10.952;2022-12-07T03:39:02;100566.53;;;3.43;100.00
23427;BME280;41148;45.420;10.952;2022-12-07T03:41:34;100557.75;;;3.49;100.00
23427;BME280;41148;45.420;10.952;2022-12-07T03:44:08;100556.91;;;3.11;100.00
23427;BME280;41148;45.420;10.952;2022-12-07T03:49:18;100556.00;;;3.26;100.00
23427;BME280;41148;45.420;10.952;2022-12-07T03:54:39;100551.63;;;3.50;100.00
23427;BME280;41148;45.420;10.952;2022-12-07T03:57:09;100546.34;;;3.48;100.00
23427;BME280;41148;45.420;10.952;2022-12-07T03:59:38;100543.72;;;3.22;100.00
23427;BME280;41148;45.420;10.952;2022-12-07T04:02:07;100542.84;;;3.35;100.00
23427;BME280;41148;45.420;10.952;2022-12-07T04:04:35;100534.94;;;3.35;100.00
23427;BME280;41148;45.420;10.952;2022-12-07T04:07:02;100535.81;;;3.37;100.00
23427;BME280;41148;45.420;10.952;2022-12-07T04:09:30;100544.59;;;3.36;100.00
23427;BME280;41148;45.420;10.952;2022-12-07T04:11:57;100539.34;;;3.41;100.00
23427;BME280;41148;45.420;10.952;2022-12-07T04:14:24;100546.38;;;3.28;100.00
23427;BME280;41148;45.420;10.952;2022-12-07T04:16:55;100542.81;;;3.37;100.00
23427;BME280;41148;45.420;10.952;2022-12-07T04:19:28;100545.47;;;3.49;100.00
23427;BME280;41148;45.420;10.952;2022-12-07T04:21:56;100548.97;;;3.34;100.00
23427;BME280;41148;45.420;10.952;2022-12-07T04:24:24;100545.47;;;3.26;100.00
23427;BME280;41148;45.420;10.952;2022-12-07T04:26:52;100545.47;;;3.25;100.00
23427;BME280;41148;45.420;10.952;2022-12-07T04:29:20;100538.44;;;3.17;100.00
23427;BME280;41148;45.420;10.952;2022-12-07T04:31:48;100545.47;;;2.97;100.00
23427;BME280;41148;45.420;10.952;2022-12-07T04:34:16;100541.09;;;3.08;100.00
23427;BME280;41148;45.420;10.952;2022-12-07T04:36:44;100534.06;;;3.35;100.00
23427;BME280;41148;45.420;10.952;2022-12-07T04:39:22;100539.34;;;3.38;100.00
23427;BME280;41148;45.420;10.952;2022-12-07T04:41:49;100534.06;;;3.35;100.00
23427;BME280;41148;45.420;10.952;2022-12-07T04:44:18;100530.53;;;3.36;100.00
23427;BME280;41148;45.420;10.952;2022-12-07T04:46:46;100535.84;;;3.30;100.00
23427;BME280;41148;45.420;10.952;2022-12-07T04:49:14;100541.09;;;3.22;100.00
23427;BME280;41148;45.420;10.952;2022-12-07T04:51:42;100547.25;;;3.29;100.00
23427;BME280;41148;45.420;10.952;2022-12-07T04:54:11;100535.81;;;2.95;100.00
23427;BME280;41148;45.420;10.952;2022-12-07T04:56:39;100543.72;;;3.16;100.00
23427;BME280;41148;45.420;10.952;2022-12-07T04:59:08;100540.22;;;3.29;100.00
23427;BME280;41148;45.420;10.952;2022-12-07T05:01:36;100543.72;;;3.25;100.00
23427;BME280;41148;45.420;10.952;2022-12-07T05:04:03;100540.22;;;3.22;100.00
23427;BME280;41148;45.420;10.952;2022-12-07T05:06:31;100549.00;;;3.22;100.00
23427;BME280;41148;45.420;10.952;2022-12-07T05:08:59;100548.97;;;3.07;100.00
23427;BME280;41148;45.420;10.952;2022-12-07T05:11:26;100534.94;;;2.97;100.00
23427;BME280;41148;45.420;10.952;2022-12-07T05:14:07;100540.22;;;3.00;100.00
23427;BME280;41148;45.420;10.952;2022-12-07T05:16:35;100549.00;;;2.90;100.00
23427;BME280;41148;45.420;10.952;2022-12-07T05:19:04;100532.31;;;2.88;100.00
23427;BME280;41148;45.420;10.952;2022-12-07T05:21:32;100525.28;;;2.67;100.00
23427;BME280;41148;45.420;10.952;2022-12-07T05:23:59;100535.75;;;2.46;100.00
23427;BME280;41148;45.420;10.952;2022-12-07T05:26:27;100527.03;;;2.65;100.00
23427;BME280;41148;45.420;10.952;2022-12-07T05:28:56;100527.06;;;2.71;100.00
23427;BME280;41148;45.420;10.952;2022-12-07T05:31:25;100520.00;;;2.67;100.00
23427;BME280;41148;45.420;10.952;2022-12-07T05:33:53;100517.41;;;2.75;100.00
23427;BME280;41148;45.420;10.952;2022-12-07T05:36:22;100530.53;;;2.67;100.00
23427;BME280;41148;45.420;10.952;2022-12-07T05:38:49;100521.72;;;2.50;100.00
23427;BME280;41148;45.420;10.952;2022-12-07T05:41:18;100525.28;;;2.63;100.00
23427;BME280;41148;45.420;10.952;2022-12-07T05:44:05;100524.31;;;2.24;100.00
23427;BME280;41148;45.420;10.952;2022-12-07T05:46:33;100518.19;;;2.39;100.00
23427;BME280;41148;45.420;10.952;2022-12-07T05:49:00;100517.25;;;2.15;100.00
23427;BME280;41148;45.420;10.952;2022-12-07T05:51:30;100533.00;;;2.11;100.00
23427;BME280;41148;45.420;10.952;2022-12-07T05:54:30;100528.63;;;2.10;100.00
23427;BME280;41148;45.420;10.952;2022-12-07T05:56:57;100536.56;;;2.26;100.00
23427;BME280;41148;45.420;10.952;2022-12-07T05:59:25;100526.88;;;2.12;100.00
23427;BME280;41148;45.420;10.952;2022-12-07T06:02:00;100533.88;;;2.07;100.00
23427;BME280;41148;45.420;10.952;2022-12-07T06:04:31;100533.69;;;1.67;100.00
23427;BME280;41148;45.420;10.952;2022-12-07T06:06:58;100530.25;;;1.77;100.00
23427;BME280;41148;45.420;10.952;2022-12-07T06:09:27;100539.97;;;1.98;100.00
23427;BME280;41148;45.420;10.952;2022-12-07T06:11:55;100528.63;;;2.11;100.00
23427;BME280;41148;45.420;10.952;2022-12-07T06:14:42;100547.88;;;2.07;100.00
23427;BME280;41148;45.420;10.952;2022-12-07T06:17:10;100548.81;;;2.14;100.00
23427;BME280;41148;45.420;10.952;2022-12-07T06:19:39;100547.03;;;2.11;100.00
23427;BME280;41148;45.420;10.952;2022-12-07T06:22:07;100533.91;;;2.20;100.00
23427;BME280;41148;45.420;10.952;2022-12-07T06:24:36;100548.69;;;1.88;100.00
23427;BME280;41148;45.420;10.952;2022-12-07T06:27:04;100553.97;;;2.01;100.00
23427;BME280;41148;45.420;10.952;2022-12-07T06:29:32;100540.00;;;2.07;100.00
23427;BME280;41148;45.420;10.952;2022-12-07T06:31:59;100539.06;;;1.90;100.00
23427;BME280;41148;45.420;10.952;2022-12-07T06:34:27;100555.72;;;1.95;100.00
23427;BME280;41148;45.420;10.952;2022-12-07T06:36:54;100564.44;;;1.86;100.00
23427;BME280;41148;45.420;10.952;2022-12-07T06:39:25;100548.72;;;1.94;100.00
23427;BME280;41148;45.420;10.952;2022-12-07T06:41:53;100558.34;;;1.98;100.00
23427;BME280;41148;45.420;10.952;2022-12-07T06:44:22;100561.81;;;1.89;100.00
23427;BME280;41148;45.420;10.952;2022-12-07T06:46:50;100564.50;;;1.98;100.00
23427;BME280;41148;45.420;10.952;2022-12-07T06:49:17;100567.06;;;1.85;100.00
23427;BME280;41148;45.420;10.952;2022-12-07T06:51:45;100574.13;;;1.93;100.00
23427;BME280;41148;45.420;10.952;2022-12-07T06:54:15;100577.63;;;1.95;100.00
23427;BME280;41148;45.420;10.952;2022-12-07T06:56:43;100567.00;;;1.77;100.00
23427;BME280;41148;45.420;10.952;2022-12-07T06:59:10;100556.50;;;1.80;100.00
23427;BME280;41148;45.420;10.952;2022-12-07T07:01:38;100560.00;;;1.79;100.00
23427;BME280;41148;45.420;10.952;2022-12-07T07:04:05;100565.22;;;1.71;100.00
23427;BME280;41148;45.420;10.952;2022-12-07T07:06:33;100587.16;;;1.80;100.00
23427;BME280;41148;45.420;10.952;2022-12-07T07:09:00;100575.72;;;1.70;100.00
23427;BME280;41148;45.420;10.952;2022-12-07T07:11:28;100580.16;;;1.77;100.00
23427;BME280;41148;45.420;10.952;2022-12-07T07:13:55;100575.66;;;1.58;100.00
23427;BME280;41148;45.420;10.952;2022-12-07T07:16:25;100580.91;;;1.61;100.00
23427;BME280;41148;45.420;10.952;2022-12-07T07:18:53;100574.78;;;1.59;100.00
23427;BME280;41148;45.420;10.952;2022-12-07T07:21:20;100595.84;;;1.68;100.00
23427;BME280;41148;45.420;10.952;2022-12-07T07:23:48;100589.72;;;1.66;100.00
23427;BME280;41148;45.420;10.952;2022-12-07T07:26:15;100586.16;;;1.59;100.00
23427;BME280;41148;45.420;10.952;2022-12-07T07:28:49;100581.72;;;1.54;100.00
23427;BME280;41148;45.420;10.952;2022-12-07T07:31:16;100591.53;;;1.75;100.00
23427;BME280;41148;45.420;10.952;2022-12-07T07:33:45;100591.53;;;1.82;100.00
23427;BME280;41148;45.420;10.952;2022-12-07T07:36:13;100583.72;;;1.93;100.00
23427;BME280;41148;45.420;10.952;2022-12-07T07:38:41;100596.91;;;1.96;100.00
23427;BME280;41148;45.420;10.952;2022-12-07T07:41:08;100586.34;;;1.91;100.00
23427;BME280;41148;45.420;10.952;2022-12-07T07:43:36;100597.75;;;1.95;100.00
23427;BME280;41148;45.420;10.952;2022-12-07T07:46:03;100589.06;;;2.07;100.00
23427;BME280;41148;45.420;10.952;2022-12-07T07:48:31;100578.56;;;2.10;100.00
23427;BME280;41148;45.420;10.952;2022-12-07T07:50:58;100585.59;;;2.15;100.00
23427;BME280;41148;45.420;10.952;2022-12-07T07:53:26;100585.56;;;2.09;100.00
23427;BME280;41148;45.420;10.952;2022-12-07T07:55:54;100589.03;;;2.00;100.00
23427;BME280;41148;45.420;10.952;2022-12-07T07:58:21;100589.06;;;2.05;100.00
23427;BME280;41148;45.420;10.952;2022-12-07T08:00:49;100582.97;;;2.21;100.00
23427;BME280;41148;45.420;10.952;2022-12-07T08:03:18;100589.09;;;2.16;100.00
23427;BME280;41148;45.420;10.952;2022-12-07T08:05:46;100589.16;;;2.25;100.00
23427;BME280;41148;45.420;10.952;2022-12-07T08:08:13;100604.09;;;2.37;100.00
23427;BME280;41148;45.420;10.952;2022-12-07T08:10:41;100594.44;;;2.34;100.00
23427;BME280;41148;45.420;10.952;2022-12-07T08:13:08;100602.34;;;2.36;100.00
23427;BME280;41148;45.420;10.952;2022-12-07T08:15:41;100607.63;;;2.48;100.00
23427;BME280;41148;45.420;10.952;2022-12-07T08:18:09;100605.91;;;2.59;100.00
23427;BME280;41148;45.420;10.952;2022-12-07T08:20:38;100605.94;;;2.70;100.00
23427;BME280;41148;45.420;10.952;2022-12-07T08:23:06;100598.94;;;2.78;100.00
23427;BME280;41148;45.420;10.952;2022-12-07T08:25:34;100591.97;;;2.80;100.00
23427;BME280;41148;45.420;10.952;2022-12-07T08:28:02;100599.00;;;2.90;100.00
23427;BME280;41148;45.420;10.952;2022-12-07T08:30:30;100595.50;;;3.05;100.00
23427;BME280;41148;45.420;10.952;2022-12-07T08:32:58;100601.63;;;3.05;100.00
23427;BME280;41148;45.420;10.952;2022-12-07T08:35:25;100611.28;;;3.14;100.00
23427;BME280;41148;45.420;10.952;2022-12-07T08:37:53;100599.88;;;3.13;100.00
23427;BME280;41148;45.420;10.952;2022-12-07T08:40:20;100610.44;;;3.20;100.00
23427;BME280;41148;45.420;10.952;2022-12-07T08:42:49;100613.94;;;3.26;100.00
23427;BME280;41148;45.420;10.952;2022-12-07T08:45:18;100616.56;;;3.37;100.00
23427;BME280;41148;45.420;10.952;2022-12-07T08:48:13;100613.94;;;3.43;100.00
23427;BME280;41148;45.420;10.952;2022-12-07T08:50:41;100616.56;;;3.51;100.00
23427;BME280;41148;45.420;10.952;2022-12-07T08:53:16;100624.47;;;3.63;100.00
23427;BME280;41148;45.420;10.952;2022-12-07T08:55:45;100600.75;;;3.57;100.00
23427;BME280;41148;45.420;10.952;2022-12-07T08:58:13;100608.66;;;3.78;100.00
23427;BME280;41148;45.420;10.952;2022-12-07T09:00:41;100603.38;;;3.81;100.00
23427;BME280;41148;45.420;10.952;2022-12-07T09:03:08;100605.97;;;3.95;100.00
23427;BME280;41148;45.420;10.952;2022-12-07T09:05:36;100601.59;;;3.97;100.00
23427;BME280;41148;45.420;10.952;2022-12-07T09:08:04;100605.94;;;4.07;100.00
23427;BME280;41148;45.420;10.952;2022-12-07T09:10:32;100594.50;;;4.16;100.00
23427;BME280;41148;45.420;10.952;2022-12-07T09:12:59;100605.03;;;4.19;100.00
23427;BME280;41148;45.420;10.952;2022-12-07T09:15:29;100605.00;;;4.23;100.00
23427;BME280;41148;45.420;10.952;2022-12-07T09:17:58;100606.81;;;4.08;100.00
23427;BME280;41148;45.420;10.952;2022-12-07T09:20:25;100611.22;;;4.06;100.00
23427;BME280;41148;45.420;10.952;2022-12-07T09:22:54;100607.69;;;4.03;100.00
23427;BME280;41148;45.420;10.952;2022-12-07T09:25:22;100606.81;;;4.12;100.00
23427;BME280;41148;45.420;10.952;2022-12-07T09:27:55;100610.25;;;4.32;100.00
23427;BME280;41148;45.420;10.952;2022-12-07T09:30:23;100607.63;;;4.36;100.00
23427;BME280;41148;45.420;10.952;2022-12-07T09:32:52;100605.84;;;4.33;100.00
23427;BME280;41148;45.420;10.952;2022-12-07T09:35:21;100607.56;;;4.45;100.00
23427;BME280;41148;45.420;10.952;2022-12-07T09:37:49;100605.81;;;4.42;100.00
23427;BME280;41148;45.420;10.952;2022-12-07T09:40:20;100597.00;;;4.49;100.00
23427;BME280;41148;45.420;10.952;2022-12-07T09:42:51;100597.84;;;4.54;100.00
23427;BME280;41148;45.420;10.952;2022-12-07T09:45:27;100603.94;;;4.67;100.00
23427;BME280;41148;45.420;10.952;2022-12-07T09:47:57;100603.91;;;4.70;100.00
23427;BME280;41148;45.420;10.952;2022-12-07T09:50:27;100586.25;;;4.81;100.00
23427;BME280;41148;45.420;10.952;2022-12-07T09:53:12;100601.13;;;4.96;100.00
23427;BME280;41148;45.420;10.952;2022-12-07T09:55:42;100585.28;;;4.96;100.00
23427;BME280;41148;45.420;10.952;2022-12-07T09:58:21;100574.81;;;4.84;100.00
23427;BME280;41148;45.420;10.952;2022-12-07T10:00:53;100586.22;;;4.87;100.00
23427;BME280;41148;45.420;10.952;2022-12-07T10:03:23;100576.56;;;4.86;100.00
23427;BME280;41148;45.420;10.952;2022-12-07T10:05:51;100576.47;;;4.99;100.00
23427;BME280;41148;45.420;10.952;2022-12-07T10:08:19;100571.09;;;5.14;100.00
23427;BME280;41148;45.420;10.952;2022-12-07T10:10:55;100576.31;;;5.22;100.00
23427;BME280;41148;45.420;10.952;2022-12-07T10:13:41;100570.88;;;5.38;100.00
23427;BME280;41148;45.420;10.952;2022-12-07T10:18:56;100567.31;;;5.44;100.00
23427;BME280;41148;45.420;10.952;2022-12-07T10:21:25;100572.56;;;5.47;100.00
23427;BME280;41148;45.420;10.952;2022-12-07T10:29:16;100563.56;;;5.66;100.00
23427;BME280;41148;45.420;10.952;2022-12-07T10:31:46;100565.19;;;5.78;100.00
23427;BME280;41148;45.420;10.952;2022-12-07T10:36:53;100558.06;;;5.89;100.00
23427;BME280;41148;45.420;10.952;2022-12-07T10:39:22;100552.75;;;5.89;100.00
23427;BME280;41148;45.420;10.952;2022-12-07T10:42:03;100556.28;;;5.90;100.00
23427;BME280;41148;45.420;10.952;2022-12-07T10:44:32;100556.22;;;5.96;99.94
23427;BME280;41148;45.420;10.952;2022-12-07T10:52:45;100550.06;;;5.95;100.00
23427;BME280;41148;45.420;10.952;2022-12-07T10:55:38;100535.94;;;5.98;100.00
23427;BME280;41148;45.420;10.952;2022-12-07T11:01:04;100540.44;;;5.91;100.00
23427;BME280;41148;45.420;10.952;2022-12-07T11:07:10;100544.88;;;5.83;100.00
23427;BME280;41148;45.420;10.952;2022-12-07T11:09:47;100544.94;;;5.80;100.00
23427;BME280;41148;45.420;10.952;2022-12-07T11:12:47;100543.16;;;5.78;100.00
23427;BME280;41148;45.420;10.952;2022-12-07T11:15:26;100541.53;;;5.66;100.00
23427;BME280;41148;45.420;10.952;2022-12-07T11:34:53;100523.09;;;5.63;100.00
23427;BME280;41148;45.420;10.952;2022-12-07T11:37:30;100511.72;;;5.55;100.00
23427;BME280;41148;45.420;10.952;2022-12-07T11:42:53;100516.22;;;5.43;100.00
23427;BME280;41148;45.420;10.952;2022-12-07T11:45:30;100509.94;;;5.55;100.00
23427;BME280;41148;45.420;10.952;2022-12-07T11:51:07;100502.75;;;5.71;100.00
23427;BME280;41148;45.420;10.952;2022-12-07T11:53:44;100501.75;;;5.78;100.00
23427;BME280;41148;45.420;10.952;2022-12-07T11:56:14;100501.81;;;5.73;96.54
23427;BME280;41148;45.420;10.952;2022-12-07T12:06:37;100481.38;;;5.92;96.18
23427;BME280;41148;45.420;10.952;2022-12-07T12:09:21;100474.19;;;6.02;95.95
23427;BME280;41148;45.420;10.952;2022-12-07T12:15:16;100474.94;;;6.12;97.08
23427;BME280;41148;45.420;10.952;2022-12-07T12:20:35;100462.38;;;6.29;98.47
23427;BME280;41148;45.420;10.952;2022-12-07T12:23:16;100460.50;;;6.36;98.44
23427;BME280;41148;45.420;10.952;2022-12-07T12:28:31;100464.72;;;6.49;97.40
23427;BME280;41148;45.420;10.952;2022-12-07T12:33:46;100459.38;;;6.52;97.99
23427;BME280;41148;45.420;10.952;2022-12-07T12:44:12;100452.84;;;6.74;97.35
23427;BME280;41148;45.420;10.952;2022-12-07T12:46:54;100454.44;;;6.84;96.40
23427;BME280;41148;45.420;10.952;2022-12-07T12:52:01;100444.59;;;6.93;95.54
23427;BME280;41148;45.420;10.952;2022-12-07T12:57:38;100444.44;;;7.02;96.47
23427;BME280;41148;45.420;10.952;2022-12-07T13:02:55;100441.66;;;7.09;96.78
23427;BME280;41148;45.420;10.952;2022-12-07T13:05:27;100441.59;;;7.12;96.47
23427;BME280;41148;45.420;10.952;2022-12-07T13:08:17;100443.28;;;7.18;97.05
23427;BME280;41148;45.420;10.952;2022-12-07T13:10:46;100440.44;;;7.29;96.52
23427;BME280;41148;45.420;10.952;2022-12-07T13:15:49;100430.75;;;7.28;95.50
23427;BME280;41148;45.420;10.952;2022-12-07T13:18:34;100433.34;;;7.29;95.75
23427;BME280;41148;45.420;10.952;2022-12-07T13:29:11;100426.97;;;7.39;94.60
23427;BME280;41148;45.420;10.952;2022-12-07T13:34:29;100430.59;;;7.35;95.71
23427;BME280;41148;45.420;10.952;2022-12-07T13:37:00;100427.81;;;7.41;95.10
23427;BME280;41148;45.420;10.952;2022-12-07T13:39:28;100426.88;;;7.45;95.42
23427;BME280;41148;45.420;10.952;2022-12-07T13:41:58;100419.91;;;7.40;95.73
23427;BME280;41148;45.420;10.952;2022-12-07T13:44:27;100415.50;;;7.39;96.59
23427;BME280;41148;45.420;10.952;2022-12-07T13:47:06;100411.91;;;7.41;96.76
23427;BME280;41148;45.420;10.952;2022-12-07T13:49:48;100411.91;;;7.41;96.81
23427;BME280;41148;45.420;10.952;2022-12-07T13:52:25;100407.50;;;7.40;97.40
23427;BME280;41148;45.420;10.952;2022-12-07T13:54:59;100415.41;;;7.45;97.41
23427;BME280;41148;45.420;10.952;2022-12-07T13:57:29;100411.00;;;7.44;97.74
23427;BME280;41148;45.420;10.952;2022-12-07T14:00:06;100410.84;;;7.50;97.40
23427;BME280;41148;45.420;10.952;2022-12-07T14:03:04;100414.38;;;7.51;97.68
23427;BME280;41148;45.420;10.952;2022-12-07T14:08:33;100416.31;;;7.42;96.92
23427;BME280;41148;45.420;10.952;2022-12-07T14:11:00;100420.69;;;7.45;96.96
23427;BME280;41148;45.420;10.952;2022-12-07T14:13:36;100410.13;;;7.42;96.27
23427;BME280;41148;45.420;10.952;2022-12-07T14:18:49;100404.00;;;7.40;97.27
23427;BME280;41148;45.420;10.952;2022-12-07T14:21:20;100412.00;;;7.37;97.25
23427;BME280;41148;45.420;10.952;2022-12-07T14:26:39;100414.75;;;7.32;97.67
23427;BME280;41148;45.420;10.952;2022-12-07T14:29:30;100412.25;;;7.23;97.97
23427;BME280;41148;45.420;10.952;2022-12-07T14:35:12;100413.28;;;7.16;98.45
23427;BME280;41148;45.420;10.952;2022-12-07T14:37:42;100420.38;;;7.14;99.28
23427;BME280;41148;45.420;10.952;2022-12-07T14:40:29;100416.19;;;7.02;99.84
23427;BME280;41148;45.420;10.952;2022-12-07T14:43:02;100417.13;;;7.00;99.89
23427;BME280;41148;45.420;10.952;2022-12-07T14:45:29;100427.78;;;6.97;100.00
23427;BME280;41148;45.420;10.952;2022-12-07T14:47:57;100423.50;;;6.88;100.00
23427;BME280;41148;45.420;10.952;2022-12-07T14:50:49;100434.28;;;6.77;100.00
23427;BME280;41148;45.420;10.952;2022-12-07T14:53:40;100433.38;;;6.78;100.00
23427;BME280;41148;45.420;10.952;2022-12-07T14:56:09;100434.22;;;6.80;100.00
23427;BME280;41148;45.420;10.952;2022-12-07T14:58:36;100434.41;;;6.70;100.00
23427;BME280;41148;45.420;10.952;2022-12-07T15:01:04;100431.78;;;6.68;100.00
23427;BME280;41148;45.420;10.952;2022-12-07T15:03:34;100433.63;;;6.62;100.00
23427;BME280;41148;45.420;10.952;2022-12-07T15:06:03;100432.81;;;6.58;100.00
23427;BME280;41148;45.420;10.952;2022-12-07T15:08:31;100436.44;;;6.52;100.00
23427;BME280;41148;45.420;10.952;2022-12-07T15:10:59;100427.56;;;6.55;100.00
23427;BME280;41148;45.420;10.952;2022-12-07T15:13:28;100436.44;;;6.52;100.00